createdAt,value
2019-04-25T00:00:01.898Z,53.39
2019-04-25T00:02:33.272Z,53.39
2019-04-25T00:04:59.472Z,53.51
2019-04-25T00:07:25.656Z,53.61
2019-04-25T00:09:53.182Z,53.52
2019-04-25T00:12:19.739Z,53.03
2019-04-25T00:14:48.170Z,52.75
2019-04-25T00:17:14.637Z,52.25
2019-04-25T00:19:42.491Z,52.02
2019-04-25T00:22:11.786Z,51.91
2019-04-25T00:24:52.993Z,51.72
2019-04-25T00:27:19.406Z,51.68
2019-04-25T00:29:46.653Z,51.37
2019-04-25T00:32:12.945Z,51.55
2019-04-25T00:34:40.850Z,51.21
2019-04-25T00:37:07.191Z,51.15
2019-04-25T00:39:33.458Z,51.12
2019-04-25T00:41:59.630Z,51.13
2019-04-25T00:44:26.032Z,51.16
2019-04-25T00:46:56.547Z,51.29
2019-04-25T00:49:20.270Z,51.38
2019-04-25T00:51:46.447Z,51.47
2019-04-25T00:54:12.713Z,50.98
2019-04-25T00:56:39.019Z,51.13
2019-04-25T00:59:13.956Z,51.26
2019-04-25T01:01:46.503Z,51.33
2019-04-25T01:04:13.294Z,51.25
2019-04-25T01:06:39.523Z,51.21
2019-04-25T01:09:08.036Z,51.39
2019-04-25T01:11:34.256Z,51.18
2019-04-25T01:14:02.068Z,51.30
2019-04-25T01:16:28.519Z,51.10
2019-04-25T01:18:55.533Z,51.00
2019-04-25T01:21:22.063Z,51.13
2019-04-25T01:23:48.325Z,51.14
2019-04-25T01:26:14.847Z,51.17
2019-04-25T01:28:41.212Z,51.20
2019-04-25T01:31:09.378Z,51.19
2019-04-25T01:33:35.619Z,51.10
2019-04-25T01:36:06.689Z,51.10
2019-04-25T01:38:49.703Z,51.16
2019-04-25T01:41:34.231Z,51.19
2019-04-25T01:44:05.106Z,51.16
2019-04-25T01:46:34.126Z,51.19
2019-04-25T01:49:00.483Z,50.98
2019-04-25T01:51:26.747Z,51.05
2019-04-25T01:53:54.556Z,51.00
2019-04-25T01:56:21.085Z,51.00
2019-04-25T01:58:48.895Z,51.11
2019-04-25T02:01:16.157Z,50.91
2019-04-25T02:03:44.152Z,51.01
2019-04-25T02:06:10.498Z,50.99
2019-04-25T02:08:36.605Z,51.05
2019-04-25T02:11:05.011Z,51.03
2019-04-25T02:13:31.115Z,51.10
2019-04-25T02:15:57.517Z,51.19
2019-04-25T02:18:23.791Z,51.15
2019-04-25T02:20:50.114Z,51.11
2019-04-25T02:23:17.195Z,51.23
2019-04-25T02:25:44.262Z,51.18
2019-04-25T02:28:10.799Z,51.29
2019-04-25T02:30:37.190Z,51.28
2019-04-25T02:33:08.822Z,51.35
2019-04-25T02:35:31.809Z,51.45
2019-04-25T02:38:01.299Z,51.56
2019-04-25T02:40:26.470Z,51.85
2019-04-25T02:42:55.632Z,52.10
2019-04-25T02:45:37.849Z,52.05
2019-04-25T02:48:24.238Z,52.15
2019-04-25T02:50:54.080Z,52.26
2019-04-25T02:53:37.897Z,52.32
2019-04-25T02:56:12.382Z,52.30
2019-04-25T02:58:34.225Z,52.45
2019-04-25T03:01:10.754Z,52.58
2019-04-25T03:03:29.161Z,52.78
2019-04-25T03:05:57.354Z,52.88
2019-04-25T03:08:24.393Z,53.15
2019-04-25T03:10:50.929Z,53.22
2019-04-25T03:13:17.248Z,53.23
2019-04-25T03:15:44.188Z,53.20
2019-04-25T03:18:14.567Z,53.09
2019-04-25T03:20:45.160Z,53.08
2019-04-25T03:23:14.479Z,53.07
2019-04-25T03:25:41.067Z,52.86
2019-04-25T03:28:07.607Z,52.84
2019-04-25T03:30:35.538Z,52.56
2019-04-25T03:33:03.737Z,52.38
2019-04-25T03:35:30.144Z,52.52
2019-04-25T03:37:56.253Z,52.51
2019-04-25T03:40:23.532Z,52.67
2019-04-25T03:42:49.942Z,52.63
2019-04-25T03:45:16.151Z,52.77
2019-04-25T03:47:43.229Z,52.72
2019-04-25T03:50:09.885Z,52.76
2019-04-25T03:52:37.123Z,52.68
2019-04-25T03:55:07.413Z,52.57
2019-04-25T03:57:33.405Z,52.59
2019-04-25T03:59:59.631Z,52.63
2019-04-25T04:02:25.866Z,52.55
2019-04-25T04:04:53.601Z,52.63
2019-04-25T04:07:20.056Z,52.76
2019-04-25T04:09:46.207Z,52.73
2019-04-25T04:12:12.498Z,52.73
2019-04-25T04:14:38.616Z,52.52
2019-04-25T04:17:16.084Z,52.29
2019-04-25T04:19:59.330Z,52.38
2019-04-25T04:22:31.202Z,52.57
2019-04-25T04:24:59.261Z,52.38
2019-04-25T04:27:25.532Z,52.03
2019-04-25T04:29:51.787Z,52.05
2019-04-25T04:32:17.929Z,52.24
2019-04-25T04:34:45.517Z,51.87
2019-04-25T04:37:13.942Z,51.97
2019-04-25T04:39:39.878Z,52.01
2019-04-25T04:42:06.089Z,52.13
2019-04-25T04:44:32.257Z,52.18
2019-04-25T04:47:00.028Z,52.00
2019-04-25T04:49:26.114Z,52.03
2019-04-25T04:51:54.103Z,52.06
2019-04-25T04:54:20.465Z,52.15
2019-04-25T04:56:46.739Z,52.00
2019-04-25T04:59:14.609Z,51.93
2019-04-25T05:02:00.204Z,51.82
2019-04-25T05:04:31.039Z,51.65
2019-04-25T05:07:03.599Z,51.70
2019-04-25T05:09:29.958Z,52.05
2019-04-25T05:11:56.203Z,51.69
2019-04-25T05:14:24.268Z,51.51
2019-04-25T05:16:50.745Z,51.59
2019-04-25T05:19:17.987Z,50.78
2019-04-25T05:21:45.652Z,51.21
2019-04-25T05:24:12.847Z,51.13
2019-04-25T05:26:39.580Z,50.60
2019-04-25T05:29:05.815Z,50.40
2019-04-25T05:31:34.219Z,50.30
2019-04-25T05:34:00.483Z,50.72
2019-04-25T05:36:28.561Z,50.58
2019-04-25T05:38:54.713Z,50.43
2019-04-25T05:41:39.939Z,50.47
2019-04-25T05:44:06.053Z,50.29
2019-04-25T05:46:34.155Z,50.51
2019-04-25T05:49:00.521Z,50.36
2019-04-25T05:51:26.689Z,50.34
2019-04-25T05:57:04.876Z,50.77
2019-04-25T05:59:31.193Z,50.51
2019-04-25T06:01:57.336Z,50.54
2019-04-25T06:04:24.656Z,50.06
2019-04-25T06:06:53.079Z,49.59
2019-04-25T06:09:21.892Z,49.91
2019-04-25T06:11:49.974Z,50.05
2019-04-25T06:14:18.414Z,49.70
2019-04-25T06:16:44.646Z,49.91
2019-04-25T06:19:20.812Z,49.72
2019-04-25T06:21:47.415Z,49.61
2019-04-25T06:24:15.496Z,49.62
2019-04-25T06:26:44.178Z,49.67
2019-04-25T06:29:10.526Z,49.80
2019-04-25T06:31:36.863Z,49.19
2019-04-25T06:34:04.579Z,49.44
2019-04-25T06:36:30.800Z,49.18
2019-04-25T06:38:57.037Z,49.19
2019-04-25T06:41:25.606Z,49.60
2019-04-25T06:43:54.163Z,49.83
2019-04-25T06:46:25.736Z,49.98
2019-04-25T06:48:57.150Z,50.00
2019-04-25T06:51:26.001Z,49.54
2019-04-25T06:53:53.504Z,49.09
2019-04-25T06:56:19.834Z,49.11
2019-04-25T06:58:46.095Z,49.12
2019-04-25T07:01:13.481Z,49.47
2019-04-25T07:03:39.827Z,49.21
2019-04-25T07:06:06.230Z,49.19
2019-04-25T07:08:33.334Z,48.70
2019-04-25T07:11:00.531Z,48.16
2019-04-25T07:13:26.982Z,47.82
2019-04-25T07:15:53.466Z,48.22
2019-04-25T07:18:19.627Z,47.45
2019-04-25T07:20:45.948Z,46.85
2019-04-25T07:23:13.591Z,46.58
2019-04-25T07:25:43.701Z,45.76
2019-04-25T07:28:29.058Z,44.49
2019-04-25T07:31:09.290Z,43.19
2019-04-25T07:33:53.965Z,42.67
2019-04-25T07:36:20.184Z,41.21
2019-04-25T07:38:46.367Z,41.32
2019-04-25T07:41:14.671Z,41.87
2019-04-25T07:43:40.749Z,41.72
2019-04-25T07:46:07.489Z,41.14
2019-04-25T07:48:36.628Z,42.09
2019-04-25T07:51:01.807Z,42.80
2019-04-25T07:53:30.232Z,41.68
2019-04-25T07:55:56.206Z,42.68
2019-04-25T07:58:35.596Z,40.46
2019-04-25T08:00:53.971Z,40.04
2019-04-25T08:03:20.419Z,39.39
2019-04-25T08:05:46.584Z,38.75
2019-04-25T08:08:13.591Z,38.12
2019-04-25T08:10:55.732Z,39.17
2019-04-25T08:13:23.432Z,37.95
2019-04-25T08:15:54.474Z,37.75
2019-04-25T08:18:25.243Z,37.97
2019-04-25T08:20:50.499Z,37.71
2019-04-25T08:23:17.377Z,37.64
2019-04-25T08:25:43.669Z,37.28
2019-04-25T08:28:09.895Z,37.29
2019-04-25T08:30:36.691Z,37.57
2019-04-25T08:33:04.127Z,37.74
2019-04-25T08:35:34.218Z,37.89
2019-04-25T08:38:00.845Z,37.45
2019-04-25T08:40:28.689Z,36.42
2019-04-25T08:42:54.801Z,36.24
2019-04-25T08:45:21.913Z,36.14
2019-04-25T08:47:48.023Z,34.99
2019-04-25T08:50:26.711Z,35.59
2019-04-25T08:52:44.787Z,33.28
2019-04-25T08:55:29.485Z,34.70
2019-04-25T08:58:00.532Z,33.86
2019-04-25T09:00:58.260Z,35.12
2019-04-25T09:03:17.118Z,35.19
2019-04-25T09:05:46.279Z,35.05
2019-04-25T09:08:14.243Z,35.10
2019-04-25T09:10:41.282Z,35.46
2019-04-25T09:13:07.493Z,33.36
2019-04-25T09:15:36.578Z,32.40
2019-04-25T09:18:02.077Z,32.84
2019-04-25T09:20:28.342Z,31.77
2019-04-25T09:22:54.564Z,29.92
2019-04-25T09:25:20.863Z,31.36
2019-04-25T09:27:47.125Z,32.14
2019-04-25T09:30:14.451Z,31.10
2019-04-25T09:32:40.818Z,32.45
2019-04-25T09:35:07.138Z,31.84
2019-04-25T09:37:34.537Z,31.32
2019-04-25T09:40:04.268Z,32.22
2019-04-25T09:42:30.783Z,30.36
2019-04-25T09:44:58.861Z,31.30
2019-04-25T09:47:25.142Z,30.18
2019-04-25T09:49:51.590Z,29.97
2019-04-25T09:52:19.566Z,30.05
2019-04-25T09:55:05.526Z,30.33
2019-04-25T09:59:59.942Z,29.30
2019-04-25T10:02:26.410Z,30.29
2019-04-25T10:04:52.654Z,30.29
2019-04-25T10:07:18.973Z,29.52
2019-04-25T10:09:48.388Z,29.65
2019-04-25T10:12:14.723Z,29.71
2019-04-25T10:14:54.281Z,29.57
2019-04-25T10:17:20.586Z,27.93
2019-04-25T10:19:46.822Z,27.98
2019-04-25T10:22:13.686Z,27.88
2019-04-25T10:24:40.266Z,28.40
2019-04-25T10:27:06.587Z,28.38
2019-04-25T10:29:41.650Z,27.74
2019-04-25T10:32:01.914Z,26.85
2019-04-25T10:34:28.390Z,25.10
2019-04-25T10:36:54.656Z,25.85
2019-04-25T10:39:21.054Z,25.81
2019-04-25T10:41:48.290Z,25.06
2019-04-25T10:44:14.617Z,24.80
2019-04-25T10:46:41.771Z,22.68
2019-04-25T10:49:08.222Z,22.66
2019-04-25T10:51:34.436Z,22.42
2019-04-25T10:54:00.533Z,20.15
2019-04-25T10:56:26.737Z,20.45
2019-04-25T10:58:54.805Z,18.73
2019-04-25T11:01:34.894Z,18.88
2019-04-25T11:04:05.700Z,18.00
2019-04-25T11:06:33.470Z,18.12
2019-04-25T11:08:59.913Z,17.46
2019-04-25T11:11:26.315Z,18.19
2019-04-25T11:13:55.726Z,16.58
2019-04-25T11:16:22.121Z,17.32
2019-04-25T11:18:49.555Z,16.68
2019-04-25T11:21:15.958Z,15.54
2019-04-25T11:23:44.277Z,16.31
2019-04-25T11:26:11.601Z,15.46
2019-04-25T11:28:39.429Z,15.39
2019-04-25T11:31:07.627Z,14.79
2019-04-25T11:33:34.286Z,15.28
2019-04-25T11:36:00.652Z,14.65
2019-04-25T11:38:30.893Z,12.90
2019-04-25T11:41:10.973Z,12.90
2019-04-25T11:43:38.308Z,14.16
2019-04-25T11:46:04.989Z,14.89
2019-04-25T11:48:31.425Z,14.37
2019-04-25T11:50:57.913Z,14.26
2019-04-25T11:53:25.046Z,13.98
2019-04-25T11:55:51.480Z,13.27
2019-04-25T11:58:18.576Z,12.75
2019-04-25T12:00:45.986Z,12.74
2019-04-25T12:03:12.574Z,12.96
2019-04-25T12:05:38.905Z,13.41
2019-04-25T12:08:05.269Z,13.06
2019-04-25T12:10:32.481Z,12.48
2019-04-25T12:12:58.783Z,12.68
2019-04-25T12:15:25.356Z,13.09
2019-04-25T12:17:51.780Z,12.63
2019-04-25T12:20:18.506Z,12.94
2019-04-25T12:22:45.439Z,13.17
2019-04-25T12:25:13.430Z,13.04
2019-04-25T12:27:41.063Z,13.44
2019-04-25T12:30:07.760Z,12.26
2019-04-25T12:32:35.281Z,12.97
2019-04-25T12:35:01.962Z,12.33
2019-04-25T12:37:28.182Z,12.68
2019-04-25T12:39:54.363Z,11.85
2019-04-25T12:42:20.516Z,12.37
2019-04-25T12:44:48.876Z,11.85
2019-04-25T12:47:16.941Z,12.16
2019-04-25T12:49:43.822Z,12.24
2019-04-25T12:52:10.307Z,12.61
2019-04-25T12:54:36.563Z,12.37
2019-04-25T12:57:04.394Z,12.53
2019-04-25T12:59:31.445Z,12.39
2019-04-25T13:01:57.716Z,12.90
2019-04-25T13:04:23.934Z,12.59
2019-04-25T13:06:50.551Z,11.87
2019-04-25T13:09:16.871Z,12.50
2019-04-25T13:11:43.545Z,13.08
2019-04-25T13:14:09.941Z,12.33
2019-04-25T13:16:36.387Z,12.00
2019-04-25T13:19:12.749Z,11.87
2019-04-25T13:21:31.100Z,12.30
2019-04-25T13:23:58.062Z,12.94
2019-04-25T13:26:26.416Z,12.70
2019-04-25T13:28:56.136Z,13.38
2019-04-25T13:31:24.359Z,12.43
2019-04-25T13:33:54.140Z,11.85
2019-04-25T13:36:22.138Z,12.33
2019-04-25T13:38:48.406Z,11.80
2019-04-25T13:41:14.764Z,12.52
2019-04-25T13:43:40.911Z,12.50
2019-04-25T13:46:07.163Z,12.02
2019-04-25T13:48:34.679Z,11.18
2019-04-25T13:51:01.561Z,11.66
2019-04-25T13:53:28.190Z,11.40
2019-04-25T13:55:54.515Z,12.77
2019-04-25T13:58:20.817Z,12.04
2019-04-25T14:00:47.146Z,13.08
2019-04-25T14:03:13.410Z,13.90
2019-04-25T14:05:40.015Z,13.96
2019-04-25T14:08:06.123Z,14.23
2019-04-25T14:10:34.233Z,14.56
2019-04-25T14:13:00.483Z,15.03
2019-04-25T14:15:27.503Z,16.05
2019-04-25T14:17:58.370Z,15.97
2019-04-25T14:20:29.968Z,14.87
2019-04-25T14:22:56.910Z,15.35
2019-04-25T14:25:26.903Z,15.76
2019-04-25T14:27:51.703Z,15.54
2019-04-25T14:30:19.871Z,14.98
2019-04-25T14:32:46.108Z,14.50
2019-04-25T14:35:14.274Z,14.41
2019-04-25T14:37:40.863Z,14.98
2019-04-25T14:40:08.832Z,14.87
2019-04-25T14:42:35.184Z,14.41
2019-04-25T14:45:01.471Z,14.07
2019-04-25T14:47:27.886Z,14.92
2019-04-25T14:49:55.190Z,14.78
2019-04-25T14:52:21.648Z,15.15
2019-04-25T14:55:07.777Z,14.93
2019-04-25T14:57:35.105Z,15.07
2019-04-25T15:00:04.563Z,15.35
2019-04-25T15:02:32.105Z,16.26
2019-04-25T15:04:58.678Z,16.99
2019-04-25T15:07:24.803Z,16.35
2019-04-25T15:09:51.023Z,16.43
2019-04-25T15:12:17.569Z,16.77
2019-04-25T15:14:44.079Z,17.00
2019-04-25T15:17:11.428Z,18.00
2019-04-25T15:19:37.605Z,17.94
2019-04-25T15:22:04.064Z,19.82
2019-04-25T15:24:30.484Z,19.74
2019-04-25T15:26:56.591Z,19.59
2019-04-25T15:29:22.800Z,19.41
2019-04-25T15:31:55.705Z,19.57
2019-04-25T15:34:17.447Z,19.87
2019-04-25T15:36:48.465Z,20.13
2019-04-25T15:39:33.194Z,19.97
2019-04-25T15:42:06.334Z,20.05
2019-04-25T15:44:35.156Z,20.84
2019-04-25T15:47:03.212Z,21.65
2019-04-25T15:49:31.259Z,22.27
2019-04-25T15:51:57.534Z,21.88
2019-04-25T15:54:23.737Z,21.18
2019-04-25T15:56:49.899Z,21.23
2019-04-25T15:59:16.261Z,22.05
2019-04-25T16:01:42.699Z,23.02
2019-04-25T16:04:09.118Z,23.00
2019-04-25T16:06:36.191Z,23.74
2019-04-25T16:09:05.002Z,23.88
2019-04-25T16:11:33.021Z,23.94
2019-04-25T16:13:59.245Z,24.10
2019-04-25T16:16:26.758Z,24.65
2019-04-25T16:18:52.993Z,24.97
2019-04-25T16:21:19.294Z,24.88
2019-04-25T16:23:45.460Z,24.35
2019-04-25T16:26:12.867Z,25.48
2019-04-25T16:28:39.082Z,25.62
2019-04-25T16:31:08.181Z,25.91
2019-04-25T16:33:34.381Z,25.66
2019-04-25T16:36:00.607Z,26.07
2019-04-25T16:38:26.818Z,26.60
2019-04-25T16:40:53.043Z,26.11
2019-04-25T16:43:27.170Z,26.70
2019-04-25T16:45:53.528Z,26.78
2019-04-25T16:48:20.161Z,27.11
2019-04-25T16:50:46.520Z,27.17
2019-04-25T16:53:12.936Z,27.32
2019-04-25T16:55:39.053Z,27.40
2019-04-25T16:58:06.171Z,27.64
2019-04-25T17:00:40.802Z,27.75
2019-04-25T17:03:09.382Z,27.97
2019-04-25T17:05:37.937Z,28.19
2019-04-25T17:08:05.264Z,28.29
2019-04-25T17:10:31.814Z,28.44
2019-04-25T17:12:58.900Z,28.97
2019-04-25T17:15:36.274Z,28.72
2019-04-25T17:18:07.209Z,28.94
2019-04-25T17:20:35.425Z,29.29
2019-04-25T17:23:01.620Z,29.55
2019-04-25T17:25:27.968Z,29.75
2019-04-25T17:27:54.254Z,30.12
2019-04-25T17:30:20.881Z,30.43
2019-04-25T17:33:05.975Z,30.77
2019-04-25T17:35:37.113Z,30.89
2019-04-25T17:38:20.837Z,31.17
2019-04-25T17:40:47.693Z,31.47
2019-04-25T17:43:13.972Z,31.75
2019-04-25T17:45:40.128Z,32.30
2019-04-25T17:48:06.465Z,32.38
2019-04-25T17:50:32.917Z,32.51
2019-04-25T17:52:59.200Z,32.80
2019-04-25T17:55:25.710Z,33.12
2019-04-25T17:57:51.876Z,33.28
2019-04-25T18:00:33.906Z,33.29
2019-04-25T18:03:00.401Z,33.45
2019-04-25T18:05:27.557Z,33.74
2019-04-25T18:07:53.760Z,33.80
2019-04-25T18:10:20.121Z,34.10
2019-04-25T18:12:46.319Z,34.17
2019-04-25T18:15:15.603Z,34.25
2019-04-25T18:17:42.380Z,34.35
2019-04-25T18:20:11.291Z,34.42
2019-04-25T18:22:48.306Z,34.65
2019-04-25T18:25:16.508Z,34.74
2019-04-25T18:27:50.330Z,35.02
2019-04-25T18:30:16.497Z,35.30
2019-04-25T18:32:44.587Z,35.60
2019-04-25T18:35:12.974Z,35.67
2019-04-25T18:37:41.047Z,36.01
2019-04-25T18:40:09.389Z,36.28
2019-04-25T18:42:44.162Z,36.54
2019-04-25T18:45:12.715Z,36.64
2019-04-25T18:47:47.595Z,36.77
2019-04-25T18:50:15.922Z,37.23
2019-04-25T18:52:45.042Z,37.27
2019-04-25T18:55:25.474Z,37.30
2019-04-25T18:57:56.506Z,37.71
2019-04-25T19:00:43.709Z,38.11
2019-04-25T19:03:22.542Z,38.48
2019-04-25T19:05:48.591Z,38.49
2019-04-25T19:08:14.777Z,38.85
2019-04-25T19:10:40.954Z,39.08
2019-04-25T19:13:12.798Z,39.23
2019-04-25T19:15:35.286Z,39.28
2019-04-25T19:18:01.495Z,39.38
2019-04-25T19:20:27.949Z,39.64
2019-04-25T19:22:54.274Z,39.91
2019-04-25T19:25:20.509Z,40.25
2019-04-25T19:27:46.920Z,40.58
2019-04-25T19:30:14.713Z,40.83
2019-04-25T19:32:41.736Z,40.79
2019-04-25T19:35:08.584Z,41.14
2019-04-25T19:37:34.698Z,41.28
2019-04-25T19:40:21.018Z,41.34
2019-04-25T19:42:49.053Z,41.63
2019-04-25T19:45:15.352Z,41.63
2019-04-25T19:47:41.531Z,41.98
2019-04-25T19:50:08.702Z,42.06
2019-04-25T19:52:35.020Z,42.22
2019-04-25T19:55:02.204Z,42.23
2019-04-25T19:57:29.664Z,42.61
2019-04-25T19:59:56.022Z,42.78
2019-04-25T20:02:26.923Z,43.16
2019-04-25T20:04:58.199Z,43.29
2019-04-25T20:07:29.473Z,43.53
2019-04-25T20:10:14.453Z,43.78
2019-04-25T20:12:52.139Z,44.04
2019-04-25T20:15:18.538Z,44.60
2019-04-25T20:17:45.919Z,44.60
2019-04-25T20:20:13.844Z,44.52
2019-04-25T20:22:40.258Z,44.87
2019-04-25T20:25:07.222Z,44.87
2019-04-25T20:27:33.511Z,45.10
2019-04-25T20:30:00.289Z,45.10
2019-04-25T20:32:26.695Z,45.31
2019-04-25T20:34:55.264Z,45.57
2019-04-25T20:37:21.925Z,45.57
2019-04-25T20:39:49.365Z,45.63
2019-04-25T20:42:15.895Z,45.71
2019-04-25T20:44:42.276Z,45.62
2019-04-25T20:47:08.527Z,45.62
2019-04-25T20:49:34.835Z,45.90
2019-04-25T20:52:01.022Z,46.06
2019-04-25T20:54:28.348Z,46.02
2019-04-25T20:56:55.173Z,46.13
2019-04-25T20:59:21.432Z,46.38
2019-04-25T21:01:48.246Z,46.39
2019-04-25T21:04:33.452Z,46.39
2019-04-25T21:06:59.631Z,46.62
2019-04-25T21:09:29.461Z,46.58
2019-04-25T21:11:55.871Z,46.73
2019-04-25T21:14:24.175Z,46.78
2019-04-25T21:16:52.315Z,47.03
2019-04-25T21:19:26.442Z,47.00
2019-04-25T21:21:52.608Z,47.07
2019-04-25T21:24:18.799Z,47.25
2019-04-25T21:26:45.060Z,47.11
2019-04-25T21:29:11.362Z,47.17
2019-04-25T21:31:37.844Z,47.25
2019-04-25T21:34:04.195Z,47.19
2019-04-25T21:36:30.651Z,47.52
2019-04-25T21:38:57.540Z,47.45
2019-04-25T21:41:29.338Z,47.42
2019-04-25T21:43:58.023Z,47.21
2019-04-25T21:46:24.730Z,47.37
2019-04-25T21:48:51.156Z,47.42
2019-04-25T21:51:32.782Z,47.46
2019-04-25T21:54:00.400Z,47.52
2019-04-25T21:56:27.808Z,47.39
2019-04-25T21:58:54.428Z,47.60
2019-04-25T22:01:23.648Z,47.67
2019-04-25T22:03:49.911Z,47.81
2019-04-25T22:06:17.885Z,47.92
2019-04-25T22:08:44.268Z,48.10
2019-04-25T22:11:10.412Z,48.08
2019-04-25T22:13:36.954Z,48.04
2019-04-25T22:16:04.034Z,48.06
2019-04-25T22:18:30.509Z,48.19
2019-04-25T22:20:56.878Z,48.22
2019-04-25T22:23:23.035Z,48.37
2019-04-25T22:25:49.676Z,48.59
2019-04-25T22:28:16.025Z,48.71
2019-04-25T22:30:44.347Z,48.44
2019-04-25T22:33:18.356Z,48.57
2019-04-25T22:35:46.484Z,48.92
2019-04-25T22:38:13.074Z,48.84
2019-04-25T22:40:39.502Z,49.15
2019-04-25T22:43:07.751Z,49.06
2019-04-25T22:45:34.708Z,49.14
2019-04-25T22:48:01.318Z,48.99
2019-04-25T22:50:28.639Z,49.10
2019-04-25T22:52:54.854Z,49.06
2019-04-25T22:55:21.110Z,49.03
2019-04-25T22:57:47.355Z,49.10
2019-04-25T23:00:15.683Z,49.25
2019-04-25T23:02:51.751Z,49.26
2019-04-25T23:05:22.927Z,49.30
2019-04-25T23:07:49.104Z,49.40
2019-04-25T23:10:15.675Z,49.54
2019-04-25T23:12:41.952Z,49.69
2019-04-25T23:15:08.826Z,49.81
2019-04-25T23:17:35.235Z,49.77
2019-04-25T23:20:04.199Z,49.77
2019-04-25T23:22:30.548Z,49.85
2019-04-25T23:25:05.068Z,49.91
2019-04-25T23:27:49.164Z,50.10
2019-04-25T23:30:17.633Z,49.90
2019-04-25T23:32:43.859Z,49.89
2019-04-25T23:35:24.260Z,49.99
2019-04-25T23:37:38.482Z,49.97
2019-04-25T23:40:05.142Z,50.18
2019-04-25T23:42:32.423Z,50.04
2019-04-25T23:44:59.764Z,49.99
2019-04-25T23:47:25.923Z,50.07
2019-04-25T23:49:52.127Z,49.93
2019-04-25T23:52:18.742Z,50.10
2019-04-25T23:54:44.966Z,49.98
2019-04-25T23:57:11.519Z,50.02
2019-04-25T23:59:37.699Z,49.99
